sensor_id;sensor_type;location;lat;lon;timestamp;P1;durP1;ratioP1;P2;durP2;ratioP2
9449;SDS011;4763;48.370;10.874;2023-07-09T00:01:40;9.55;;;4.15;;
9449;SDS011;4763;48.370;10.874;2023-07-09T00:04:09;6.40;;;3.72;;
9449;SDS011;4763;48.370;10.874;2023-07-09T00:06:37;6.05;;;3.60;;
9449;SDS011;4763;48.370;10.874;2023-07-09T00:09:04;8.32;;;3.90;;
9449;SDS011;4763;48.370;10.874;2023-07-09T00:11:32;7.53;;;3.78;;
9449;SDS011;4763;48.370;10.874;2023-07-09T00:13:59;6.00;;;3.50;;
9449;SDS011;4763;48.370;10.874;2023-07-09T00:16:26;4.70;;;3.35;;
9449;SDS011;4763;48.370;10.874;2023-07-09T00:18:52;4.28;;;3.53;;
9449;SDS011;4763;48.370;10.874;2023-07-09T00:21:21;11.35;;;4.28;;
9449;SDS011;4763;48.370;10.874;2023-07-09T00:23:47;8.73;;;4.38;;
9449;SDS011;4763;48.370;10.874;2023-07-09T00:26:17;8.43;;;3.95;;
9449;SDS011;4763;48.370;10.874;2023-07-09T00:28:48;6.72;;;3.58;;
9449;SDS011;4763;48.370;10.874;2023-07-09T00:31:15;4.40;;;3.42;;
9449;SDS011;4763;48.370;10.874;2023-07-09T00:33:43;11.45;;;4.00;;
9449;SDS011;4763;48.370;10.874;2023-07-09T00:36:13;4.55;;;3.28;;
9449;SDS011;4763;48.370;10.874;2023-07-09T00:38:45;6.25;;;3.17;;
9449;SDS011;4763;48.370;10.874;2023-07-09T00:41:13;6.40;;;3.58;;
9449;SDS011;4763;48.370;10.874;2023-07-09T00:43:44;6.85;;;3.47;;
9449;SDS011;4763;48.370;10.874;2023-07-09T00:49:29;6.70;;;3.33;;
9449;SDS011;4763;48.370;10.874;2023-07-09T00:51:58;5.68;;;3.30;;
9449;SDS011;4763;48.370;10.874;2023-07-09T00:54:30;7.60;;;3.65;;
9449;SDS011;4763;48.370;10.874;2023-07-09T00:57:02;5.32;;;3.38;;
9449;SDS011;4763;48.370;10.874;2023-07-09T00:59:34;4.20;;;3.43;;
9449;SDS011;4763;48.370;10.874;2023-07-09T01:02:02;3.97;;;3.00;;
9449;SDS011;4763;48.370;10.874;2023-07-09T01:04:31;8.33;;;3.47;;
9449;SDS011;4763;48.370;10.874;2023-07-09T01:06:58;3.43;;;3.13;;
9449;SDS011;4763;48.370;10.874;2023-07-09T01:09:26;6.23;;;3.73;;
9449;SDS011;4763;48.370;10.874;2023-07-09T01:11:54;6.63;;;3.80;;
9449;SDS011;4763;48.370;10.874;2023-07-09T01:14:38;5.20;;;3.63;;
9449;SDS011;4763;48.370;10.874;2023-07-09T01:17:05;12.23;;;4.00;;
9449;SDS011;4763;48.370;10.874;2023-07-09T01:19:37;9.80;;;3.93;;
9449;SDS011;4763;48.370;10.874;2023-07-09T01:22:10;8.50;;;3.20;;
9449;SDS011;4763;48.370;10.874;2023-07-09T01:24:49;6.50;;;3.97;;
9449;SDS011;4763;48.370;10.874;2023-07-09T01:27:19;9.33;;;3.47;;
9449;SDS011;4763;48.370;10.874;2023-07-09T01:29:48;6.63;;;3.33;;
9449;SDS011;4763;48.370;10.874;2023-07-09T01:32:16;5.17;;;3.23;;
9449;SDS011;4763;48.370;10.874;2023-07-09T01:34:45;7.83;;;3.97;;
9449;SDS011;4763;48.370;10.874;2023-07-09T01:37:15;7.50;;;3.73;;
9449;SDS011;4763;48.370;10.874;2023-07-09T01:39:44;8.63;;;3.13;;
9449;SDS011;4763;48.370;10.874;2023-07-09T01:42:11;10.73;;;3.70;;
9449;SDS011;4763;48.370;10.874;2023-07-09T01:44:39;4.90;;;3.33;;
9449;SDS011;4763;48.370;10.874;2023-07-09T01:47:07;6.33;;;3.53;;
9449;SDS011;4763;48.370;10.874;2023-07-09T01:49:34;5.60;;;3.47;;
9449;SDS011;4763;48.370;10.874;2023-07-09T01:52:01;7.77;;;3.40;;
9449;SDS011;4763;48.370;10.874;2023-07-09T01:54:31;8.60;;;4.20;;
9449;SDS011;4763;48.370;10.874;2023-07-09T01:57:11;8.60;;;3.90;;
9449;SDS011;4763;48.370;10.874;2023-07-09T01:59:40;5.00;;;3.47;;
9449;SDS011;4763;48.370;10.874;2023-07-09T02:02:09;6.07;;;3.57;;
9449;SDS011;4763;48.370;10.874;2023-07-09T02:04:44;5.07;;;3.30;;
9449;SDS011;4763;48.370;10.874;2023-07-09T02:07:14;8.40;;;3.63;;
9449;SDS011;4763;48.370;10.874;2023-07-09T02:09:42;5.00;;;3.60;;
9449;SDS011;4763;48.370;10.874;2023-07-09T02:12:09;9.77;;;3.80;;
9449;SDS011;4763;48.370;10.874;2023-07-09T02:14:37;9.07;;;4.63;;
9449;SDS011;4763;48.370;10.874;2023-07-09T02:17:05;7.10;;;4.20;;
9449;SDS011;4763;48.370;10.874;2023-07-09T02:19:32;4.93;;;3.53;;
9449;SDS011;4763;48.370;10.874;2023-07-09T02:21:59;7.73;;;3.40;;
9449;SDS011;4763;48.370;10.874;2023-07-09T02:24:26;6.77;;;3.47;;
9449;SDS011;4763;48.370;10.874;2023-07-09T02:27:00;7.37;;;4.23;;
9449;SDS011;4763;48.370;10.874;2023-07-09T02:29:29;5.47;;;3.67;;
9449;SDS011;4763;48.370;10.874;2023-07-09T02:31:57;6.50;;;4.27;;
9449;SDS011;4763;48.370;10.874;2023-07-09T02:34:26;5.43;;;3.53;;
9449;SDS011;4763;48.370;10.874;2023-07-09T02:36:53;7.70;;;3.67;;
9449;SDS011;4763;48.370;10.874;2023-07-09T02:39:21;6.47;;;3.73;;
9449;SDS011;4763;48.370;10.874;2023-07-09T02:41:48;6.50;;;3.67;;
9449;SDS011;4763;48.370;10.874;2023-07-09T02:44:16;4.93;;;3.73;;
9449;SDS011;4763;48.370;10.874;2023-07-09T02:46:44;7.63;;;4.50;;
9449;SDS011;4763;48.370;10.874;2023-07-09T02:49:11;5.83;;;3.30;;
9449;SDS011;4763;48.370;10.874;2023-07-09T02:51:39;6.20;;;4.13;;
9449;SDS011;4763;48.370;10.874;2023-07-09T02:54:06;10.23;;;4.20;;
9449;SDS011;4763;48.370;10.874;2023-07-09T02:56:33;6.60;;;3.97;;
9449;SDS011;4763;48.370;10.874;2023-07-09T02:59:00;5.60;;;3.47;;
9449;SDS011;4763;48.370;10.874;2023-07-09T03:01:28;7.10;;;3.47;;
9449;SDS011;4763;48.370;10.874;2023-07-09T03:03:57;5.70;;;4.00;;
9449;SDS011;4763;48.370;10.874;2023-07-09T03:06:25;8.20;;;4.33;;
9449;SDS011;4763;48.370;10.874;2023-07-09T03:08:52;6.70;;;4.27;;
9449;SDS011;4763;48.370;10.874;2023-07-09T03:11:19;8.60;;;4.40;;
9449;SDS011;4763;48.370;10.874;2023-07-09T03:13:47;8.23;;;4.40;;
9449;SDS011;4763;48.370;10.874;2023-07-09T03:16:14;4.80;;;3.70;;
9449;SDS011;4763;48.370;10.874;2023-07-09T03:18:43;9.43;;;4.33;;
9449;SDS011;4763;48.370;10.874;2023-07-09T03:21:10;7.17;;;4.10;;
9449;SDS011;4763;48.370;10.874;2023-07-09T03:23:37;6.23;;;4.20;;
9449;SDS011;4763;48.370;10.874;2023-07-09T03:26:04;9.13;;;4.17;;
9449;SDS011;4763;48.370;10.874;2023-07-09T03:28:31;9.10;;;4.07;;
9449;SDS011;4763;48.370;10.874;2023-07-09T03:30:58;7.83;;;4.03;;
9449;SDS011;4763;48.370;10.874;2023-07-09T03:33:25;5.53;;;3.90;;
9449;SDS011;4763;48.370;10.874;2023-07-09T03:35:54;7.10;;;4.17;;
9449;SDS011;4763;48.370;10.874;2023-07-09T03:38:21;7.87;;;4.20;;
9449;SDS011;4763;48.370;10.874;2023-07-09T03:40:51;10.30;;;4.60;;
9449;SDS011;4763;48.370;10.874;2023-07-09T03:43:19;6.60;;;3.47;;
9449;SDS011;4763;48.370;10.874;2023-07-09T03:45:46;12.67;;;3.77;;
9449;SDS011;4763;48.370;10.874;2023-07-09T03:48:13;10.30;;;3.97;;
9449;SDS011;4763;48.370;10.874;2023-07-09T03:50:41;7.67;;;4.00;;
9449;SDS011;4763;48.370;10.874;2023-07-09T03:53:11;5.73;;;3.87;;
9449;SDS011;4763;48.370;10.874;2023-07-09T03:55:39;5.10;;;3.60;;
9449;SDS011;4763;48.370;10.874;2023-07-09T03:58:06;8.40;;;4.10;;
9449;SDS011;4763;48.370;10.874;2023-07-09T04:00:33;6.83;;;3.60;;
9449;SDS011;4763;48.370;10.874;2023-07-09T04:03:00;5.50;;;3.43;;
9449;SDS011;4763;48.370;10.874;2023-07-09T04:05:27;4.87;;;3.63;;
9449;SDS011;4763;48.370;10.874;2023-07-09T04:07:54;9.00;;;4.10;;
9449;SDS011;4763;48.370;10.874;2023-07-09T04:10:23;7.17;;;3.90;;
9449;SDS011;4763;48.370;10.874;2023-07-09T04:12:50;11.37;;;4.30;;
9449;SDS011;4763;48.370;10.874;2023-07-09T04:15:17;10.10;;;4.50;;
9449;SDS011;4763;48.370;10.874;2023-07-09T04:17:44;5.93;;;3.67;;
9449;SDS011;4763;48.370;10.874;2023-07-09T04:20:11;5.63;;;3.73;;
9449;SDS011;4763;48.370;10.874;2023-07-09T04:22:39;7.63;;;4.10;;
9449;SDS011;4763;48.370;10.874;2023-07-09T04:25:06;9.50;;;3.97;;
9449;SDS011;4763;48.370;10.874;2023-07-09T04:27:37;10.00;;;4.57;;
9449;SDS011;4763;48.370;10.874;2023-07-09T04:30:05;7.07;;;4.17;;
9449;SDS011;4763;48.370;10.874;2023-07-09T04:32:35;5.43;;;3.80;;
9449;SDS011;4763;48.370;10.874;2023-07-09T04:35:02;8.60;;;4.90;;
9449;SDS011;4763;48.370;10.874;2023-07-09T04:37:30;5.97;;;4.43;;
9449;SDS011;4763;48.370;10.874;2023-07-09T04:39:57;7.77;;;4.60;;
9449;SDS011;4763;48.370;10.874;2023-07-09T04:42:24;8.37;;;4.00;;
9449;SDS011;4763;48.370;10.874;2023-07-09T04:44:52;6.63;;;4.00;;
9449;SDS011;4763;48.370;10.874;2023-07-09T04:47:18;10.93;;;6.27;;
9449;SDS011;4763;48.370;10.874;2023-07-09T04:49:45;10.23;;;4.60;;
9449;SDS011;4763;48.370;10.874;2023-07-09T04:52:14;5.70;;;4.27;;
9449;SDS011;4763;48.370;10.874;2023-07-09T04:54:41;5.33;;;3.43;;
9449;SDS011;4763;48.370;10.874;2023-07-09T04:57:09;8.20;;;4.10;;
9449;SDS011;4763;48.370;10.874;2023-07-09T04:59:36;6.10;;;4.10;;
9449;SDS011;4763;48.370;10.874;2023-07-09T05:02:04;7.27;;;4.20;;
9449;SDS011;4763;48.370;10.874;2023-07-09T05:04:32;7.93;;;4.40;;
9449;SDS011;4763;48.370;10.874;2023-07-09T05:06:59;5.47;;;3.63;;
9449;SDS011;4763;48.370;10.874;2023-07-09T05:09:26;7.13;;;4.50;;
9449;SDS011;4763;48.370;10.874;2023-07-09T05:11:52;7.80;;;4.37;;
9449;SDS011;4763;48.370;10.874;2023-07-09T05:14:19;5.87;;;3.67;;
9449;SDS011;4763;48.370;10.874;2023-07-09T05:16:46;5.40;;;3.77;;
9449;SDS011;4763;48.370;10.874;2023-07-09T05:19:14;4.03;;;3.50;;
9449;SDS011;4763;48.370;10.874;2023-07-09T05:21:41;16.17;;;4.00;;
9449;SDS011;4763;48.370;10.874;2023-07-09T05:24:08;7.37;;;4.03;;
9449;SDS011;4763;48.370;10.874;2023-07-09T05:26:34;6.57;;;4.30;;
9449;SDS011;4763;48.370;10.874;2023-07-09T05:29:02;7.43;;;4.13;;
9449;SDS011;4763;48.370;10.874;2023-07-09T05:31:30;6.23;;;3.60;;
9449;SDS011;4763;48.370;10.874;2023-07-09T05:33:56;6.37;;;3.87;;
9449;SDS011;4763;48.370;10.874;2023-07-09T05:36:25;4.77;;;3.60;;
9449;SDS011;4763;48.370;10.874;2023-07-09T05:38:54;4.20;;;3.43;;
9449;SDS011;4763;48.370;10.874;2023-07-09T05:41:21;7.73;;;3.70;;
9449;SDS011;4763;48.370;10.874;2023-07-09T05:43:48;8.33;;;3.83;;
9449;SDS011;4763;48.370;10.874;2023-07-09T05:46:15;9.27;;;3.53;;
9449;SDS011;4763;48.370;10.874;2023-07-09T05:48:42;9.23;;;4.93;;
9449;SDS011;4763;48.370;10.874;2023-07-09T05:51:09;6.67;;;3.80;;
9449;SDS011;4763;48.370;10.874;2023-07-09T05:53:39;7.50;;;3.73;;
9449;SDS011;4763;48.370;10.874;2023-07-09T05:56:06;5.60;;;3.63;;
9449;SDS011;4763;48.370;10.874;2023-07-09T05:58:33;5.00;;;3.17;;
9449;SDS011;4763;48.370;10.874;2023-07-09T06:01:00;5.13;;;3.50;;
9449;SDS011;4763;48.370;10.874;2023-07-09T06:03:28;4.83;;;3.40;;
9449;SDS011;4763;48.370;10.874;2023-07-09T06:05:55;5.70;;;3.70;;
9449;SDS011;4763;48.370;10.874;2023-07-09T06:08:23;6.40;;;3.67;;
9449;SDS011;4763;48.370;10.874;2023-07-09T06:10:54;13.20;;;4.23;;
9449;SDS011;4763;48.370;10.874;2023-07-09T06:13:22;5.50;;;4.00;;
9449;SDS011;4763;48.370;10.874;2023-07-09T06:15:49;5.72;;;3.30;;
9449;SDS011;4763;48.370;10.874;2023-07-09T06:18:17;4.53;;;3.40;;
9449;SDS011;4763;48.370;10.874;2023-07-09T06:20:48;7.13;;;3.70;;
9449;SDS011;4763;48.370;10.874;2023-07-09T06:23:15;3.97;;;2.85;;
9449;SDS011;4763;48.370;10.874;2023-07-09T06:25:42;4.88;;;3.15;;
9449;SDS011;4763;48.370;10.874;2023-07-09T06:28:14;5.38;;;3.08;;
9449;SDS011;4763;48.370;10.874;2023-07-09T06:30:41;6.38;;;3.13;;
9449;SDS011;4763;48.370;10.874;2023-07-09T06:33:08;6.53;;;3.20;;
9449;SDS011;4763;48.370;10.874;2023-07-09T06:35:36;5.53;;;2.95;;
9449;SDS011;4763;48.370;10.874;2023-07-09T06:38:02;4.00;;;3.10;;
9449;SDS011;4763;48.370;10.874;2023-07-09T06:40:29;5.28;;;2.42;;
9449;SDS011;4763;48.370;10.874;2023-07-09T06:42:57;5.70;;;2.97;;
9449;SDS011;4763;48.370;10.874;2023-07-09T06:45:25;4.88;;;3.00;;
9449;SDS011;4763;48.370;10.874;2023-07-09T06:47:52;6.55;;;3.03;;
9449;SDS011;4763;48.370;10.874;2023-07-09T06:50:19;5.45;;;3.25;;
9449;SDS011;4763;48.370;10.874;2023-07-09T06:52:45;9.45;;;3.30;;
9449;SDS011;4763;48.370;10.874;2023-07-09T06:55:12;7.05;;;3.03;;
9449;SDS011;4763;48.370;10.874;2023-07-09T06:57:39;6.03;;;3.10;;
9449;SDS011;4763;48.370;10.874;2023-07-09T07:00:06;6.82;;;2.95;;
9449;SDS011;4763;48.370;10.874;2023-07-09T07:02:35;6.22;;;3.60;;
9449;SDS011;4763;48.370;10.874;2023-07-09T07:05:02;6.82;;;3.58;;
9449;SDS011;4763;48.370;10.874;2023-07-09T07:07:29;6.13;;;3.28;;
9449;SDS011;4763;48.370;10.874;2023-07-09T07:09:56;4.88;;;3.55;;
9449;SDS011;4763;48.370;10.874;2023-07-09T07:12:23;5.43;;;2.92;;
9449;SDS011;4763;48.370;10.874;2023-07-09T07:14:51;9.52;;;4.30;;
9449;SDS011;4763;48.370;10.874;2023-07-09T07:17:18;4.50;;;2.97;;
9449;SDS011;4763;48.370;10.874;2023-07-09T07:19:47;5.32;;;2.97;;
9449;SDS011;4763;48.370;10.874;2023-07-09T07:22:13;2.90;;;2.58;;
9449;SDS011;4763;48.370;10.874;2023-07-09T07:24:40;5.28;;;3.28;;
9449;SDS011;4763;48.370;10.874;2023-07-09T07:27:07;4.90;;;3.00;;
9449;SDS011;4763;48.370;10.874;2023-07-09T07:29:34;3.88;;;2.50;;
9449;SDS011;4763;48.370;10.874;2023-07-09T07:32:01;6.13;;;3.05;;
9449;SDS011;4763;48.370;10.874;2023-07-09T07:34:28;4.90;;;2.90;;
9449;SDS011;4763;48.370;10.874;2023-07-09T07:36:57;7.55;;;3.17;;
9449;SDS011;4763;48.370;10.874;2023-07-09T07:39:23;3.30;;;2.65;;
9449;SDS011;4763;48.370;10.874;2023-07-09T07:41:50;5.40;;;3.50;;
9449;SDS011;4763;48.370;10.874;2023-07-09T07:44:17;6.47;;;3.03;;
9449;SDS011;4763;48.370;10.874;2023-07-09T07:46:44;4.95;;;2.70;;
9449;SDS011;4763;48.370;10.874;2023-07-09T07:49:11;4.15;;;2.83;;
9449;SDS011;4763;48.370;10.874;2023-07-09T07:51:38;7.28;;;2.83;;
9449;SDS011;4763;48.370;10.874;2023-07-09T07:54:06;3.90;;;2.60;;
9449;SDS011;4763;48.370;10.874;2023-07-09T07:56:35;5.95;;;3.05;;
9449;SDS011;4763;48.370;10.874;2023-07-09T07:59:02;5.05;;;2.78;;
9449;SDS011;4763;48.370;10.874;2023-07-09T08:01:29;4.72;;;2.92;;
9449;SDS011;4763;48.370;10.874;2023-07-09T08:03:56;3.92;;;3.05;;
9449;SDS011;4763;48.370;10.874;2023-07-09T08:06:23;6.13;;;2.70;;
9449;SDS011;4763;48.370;10.874;2023-07-09T08:08:50;5.22;;;2.80;;
9449;SDS011;4763;48.370;10.874;2023-07-09T08:11:18;4.88;;;2.92;;
9449;SDS011;4763;48.370;10.874;2023-07-09T08:13:45;5.28;;;2.83;;
9449;SDS011;4763;48.370;10.874;2023-07-09T08:16:11;5.30;;;2.80;;
9449;SDS011;4763;48.370;10.874;2023-07-09T08:18:38;6.03;;;2.70;;
9449;SDS011;4763;48.370;10.874;2023-07-09T08:21:05;3.67;;;2.40;;
9449;SDS011;4763;48.370;10.874;2023-07-09T08:23:32;4.70;;;2.47;;
9449;SDS011;4763;48.370;10.874;2023-07-09T08:26:00;4.65;;;2.60;;
9449;SDS011;4763;48.370;10.874;2023-07-09T08:28:29;2.85;;;2.53;;
9449;SDS011;4763;48.370;10.874;2023-07-09T08:30:56;5.93;;;3.03;;
9449;SDS011;4763;48.370;10.874;2023-07-09T08:33:23;3.25;;;2.38;;
9449;SDS011;4763;48.370;10.874;2023-07-09T08:35:50;4.47;;;3.25;;
9449;SDS011;4763;48.370;10.874;2023-07-09T08:38:18;6.70;;;3.17;;
9449;SDS011;4763;48.370;10.874;2023-07-09T08:40:49;5.45;;;2.42;;
9449;SDS011;4763;48.370;10.874;2023-07-09T08:43:23;6.57;;;2.70;;
9449;SDS011;4763;48.370;10.874;2023-07-09T08:46:06;6.30;;;2.72;;
9449;SDS011;4763;48.370;10.874;2023-07-09T08:48:40;4.10;;;2.63;;
9449;SDS011;4763;48.370;10.874;2023-07-09T08:51:12;4.65;;;2.63;;
9449;SDS011;4763;48.370;10.874;2023-07-09T08:53:44;4.20;;;2.58;;
9449;SDS011;4763;48.370;10.874;2023-07-09T08:56:15;4.68;;;2.38;;
9449;SDS011;4763;48.370;10.874;2023-07-09T08:58:46;3.47;;;2.10;;
9449;SDS011;4763;48.370;10.874;2023-07-09T09:01:17;3.00;;;2.20;;
9449;SDS011;4763;48.370;10.874;2023-07-09T09:03:47;2.60;;;1.80;;
9449;SDS011;4763;48.370;10.874;2023-07-09T09:06:17;3.90;;;2.40;;
9449;SDS011;4763;48.370;10.874;2023-07-09T09:08:48;3.83;;;2.35;;
9449;SDS011;4763;48.370;10.874;2023-07-09T09:11:30;3.78;;;2.10;;
9449;SDS011;4763;48.370;10.874;2023-07-09T09:14:07;4.10;;;2.22;;
9449;SDS011;4763;48.370;10.874;2023-07-09T09:16:52;3.28;;;2.50;;
9449;SDS011;4763;48.370;10.874;2023-07-09T09:19:22;7.50;;;2.30;;
9449;SDS011;4763;48.370;10.874;2023-07-09T09:21:54;4.10;;;2.50;;
9449;SDS011;4763;48.370;10.874;2023-07-09T09:24:26;2.13;;;1.92;;
9449;SDS011;4763;48.370;10.874;2023-07-09T09:26:57;4.15;;;2.72;;
9449;SDS011;4763;48.370;10.874;2023-07-09T09:29:26;3.33;;;2.10;;
9449;SDS011;4763;48.370;10.874;2023-07-09T09:31:54;4.70;;;2.05;;
9449;SDS011;4763;48.370;10.874;2023-07-09T09:34:23;5.32;;;2.83;;
9449;SDS011;4763;48.370;10.874;2023-07-09T09:36:52;6.40;;;2.25;;
9449;SDS011;4763;48.370;10.874;2023-07-09T09:39:19;4.45;;;2.63;;
9449;SDS011;4763;48.370;10.874;2023-07-09T09:41:46;4.93;;;2.40;;
9449;SDS011;4763;48.370;10.874;2023-07-09T09:44:19;3.38;;;2.20;;
9449;SDS011;4763;48.370;10.874;2023-07-09T09:46:49;2.90;;;2.45;;
9449;SDS011;4763;48.370;10.874;2023-07-09T09:49:16;4.55;;;2.05;;
9449;SDS011;4763;48.370;10.874;2023-07-09T09:51:44;4.20;;;2.47;;
9449;SDS011;4763;48.370;10.874;2023-07-09T09:54:15;2.78;;;2.00;;
9449;SDS011;4763;48.370;10.874;2023-07-09T09:56:44;4.82;;;2.35;;
9449;SDS011;4763;48.370;10.874;2023-07-09T09:59:16;2.85;;;2.22;;
9449;SDS011;4763;48.370;10.874;2023-07-09T10:01:45;4.18;;;2.35;;
9449;SDS011;4763;48.370;10.874;2023-07-09T10:04:15;3.75;;;2.50;;
9449;SDS011;4763;48.370;10.874;2023-07-09T10:06:46;3.70;;;2.88;;
9449;SDS011;4763;48.370;10.874;2023-07-09T10:09:17;5.55;;;2.15;;
9449;SDS011;4763;48.370;10.874;2023-07-09T10:11:52;3.42;;;2.25;;
9449;SDS011;4763;48.370;10.874;2023-07-09T10:14:35;3.33;;;2.08;;
9449;SDS011;4763;48.370;10.874;2023-07-09T10:17:09;2.67;;;2.17;;
9449;SDS011;4763;48.370;10.874;2023-07-09T10:19:48;3.13;;;2.53;;
9449;SDS011;4763;48.370;10.874;2023-07-09T10:22:31;4.28;;;2.65;;
9449;SDS011;4763;48.370;10.874;2023-07-09T10:25:11;2.97;;;1.95;;
9449;SDS011;4763;48.370;10.874;2023-07-09T10:27:48;5.93;;;2.40;;
9449;SDS011;4763;48.370;10.874;2023-07-09T10:30:32;5.32;;;2.70;;
9449;SDS011;4763;48.370;10.874;2023-07-09T10:33:08;3.90;;;2.25;;
9449;SDS011;4763;48.370;10.874;2023-07-09T10:35:41;5.05;;;2.55;;
9449;SDS011;4763;48.370;10.874;2023-07-09T10:38:20;4.90;;;2.65;;
9449;SDS011;4763;48.370;10.874;2023-07-09T10:40:58;6.55;;;2.97;;
9449;SDS011;4763;48.370;10.874;2023-07-09T10:43:33;3.63;;;2.38;;
9449;SDS011;4763;48.370;10.874;2023-07-09T10:46:04;4.28;;;2.30;;
9449;SDS011;4763;48.370;10.874;2023-07-09T10:48:37;4.32;;;2.05;;
9449;SDS011;4763;48.370;10.874;2023-07-09T10:51:10;4.28;;;2.83;;
9449;SDS011;4763;48.370;10.874;2023-07-09T10:53:43;2.85;;;2.28;;
9449;SDS011;4763;48.370;10.874;2023-07-09T10:56:15;3.38;;;2.35;;
9449;SDS011;4763;48.370;10.874;2023-07-09T10:58:47;3.60;;;2.25;;
9449;SDS011;4763;48.370;10.874;2023-07-09T11:01:35;3.13;;;2.10;;
9449;SDS011;4763;48.370;10.874;2023-07-09T11:04:05;4.63;;;2.10;;
9449;SDS011;4763;48.370;10.874;2023-07-09T11:06:38;5.10;;;2.75;;
9449;SDS011;4763;48.370;10.874;2023-07-09T11:09:11;3.03;;;2.30;;
9449;SDS011;4763;48.370;10.874;2023-07-09T11:11:48;4.53;;;2.25;;
9449;SDS011;4763;48.370;10.874;2023-07-09T11:14:22;2.85;;;2.38;;
9449;SDS011;4763;48.370;10.874;2023-07-09T11:16:52;8.50;;;2.83;;
9449;SDS011;4763;48.370;10.874;2023-07-09T11:19:22;4.95;;;1.90;;
9449;SDS011;4763;48.370;10.874;2023-07-09T11:22:02;4.65;;;2.40;;
9449;SDS011;4763;48.370;10.874;2023-07-09T11:24:34;3.30;;;2.00;;
9449;SDS011;4763;48.370;10.874;2023-07-09T11:27:15;4.18;;;2.45;;
9449;SDS011;4763;48.370;10.874;2023-07-09T11:29:45;13.43;;;8.30;;
9449;SDS011;4763;48.370;10.874;2023-07-09T11:32:18;6.00;;;2.83;;
9449;SDS011;4763;48.370;10.874;2023-07-09T11:34:47;3.65;;;2.42;;
9449;SDS011;4763;48.370;10.874;2023-07-09T11:37:15;5.97;;;2.60;;
9449;SDS011;4763;48.370;10.874;2023-07-09T11:39:43;2.78;;;2.33;;
9449;SDS011;4763;48.370;10.874;2023-07-09T11:42:27;5.40;;;2.10;;
9449;SDS011;4763;48.370;10.874;2023-07-09T11:44:57;3.90;;;2.38;;
9449;SDS011;4763;48.370;10.874;2023-07-09T11:47:33;7.28;;;4.35;;
9449;SDS011;4763;48.370;10.874;2023-07-09T11:50:04;6.15;;;2.47;;
9449;SDS011;4763;48.370;10.874;2023-07-09T11:52:34;8.45;;;2.88;;
9449;SDS011;4763;48.370;10.874;2023-07-09T11:55:14;2.90;;;2.05;;
9449;SDS011;4763;48.370;10.874;2023-07-09T12:00:24;5.50;;;3.03;;
9449;SDS011;4763;48.370;10.874;2023-07-09T12:02:53;2.83;;;2.30;;
9449;SDS011;4763;48.370;10.874;2023-07-09T12:05:22;5.30;;;2.97;;
9449;SDS011;4763;48.370;10.874;2023-07-09T12:07:54;4.88;;;2.78;;
9449;SDS011;4763;48.370;10.874;2023-07-09T12:10:22;5.63;;;2.42;;
9449;SDS011;4763;48.370;10.874;2023-07-09T12:12:53;7.32;;;2.75;;
9449;SDS011;4763;48.370;10.874;2023-07-09T12:15:22;4.82;;;2.15;;
9449;SDS011;4763;48.370;10.874;2023-07-09T12:17:57;2.90;;;2.10;;
9449;SDS011;4763;48.370;10.874;2023-07-09T12:20:25;6.10;;;2.33;;
9449;SDS011;4763;48.370;10.874;2023-07-09T12:22:56;3.85;;;2.20;;
9449;SDS011;4763;48.370;10.874;2023-07-09T12:25:24;5.10;;;2.65;;
9449;SDS011;4763;48.370;10.874;2023-07-09T12:27:51;4.53;;;2.40;;
9449;SDS011;4763;48.370;10.874;2023-07-09T12:30:19;2.67;;;2.17;;
9449;SDS011;4763;48.370;10.874;2023-07-09T12:32:47;4.72;;;2.67;;
9449;SDS011;4763;48.370;10.874;2023-07-09T12:35:17;3.88;;;2.42;;
9449;SDS011;4763;48.370;10.874;2023-07-09T12:37:46;7.20;;;2.70;;
9449;SDS011;4763;48.370;10.874;2023-07-09T12:40:17;3.90;;;2.55;;
9449;SDS011;4763;48.370;10.874;2023-07-09T12:42:47;4.78;;;2.67;;
9449;SDS011;4763;48.370;10.874;2023-07-09T12:45:15;3.85;;;2.50;;
9449;SDS011;4763;48.370;10.874;2023-07-09T12:47:44;3.55;;;2.38;;
9449;SDS011;4763;48.370;10.874;2023-07-09T12:50:20;4.18;;;2.90;;
9449;SDS011;4763;48.370;10.874;2023-07-09T12:52:54;3.22;;;2.25;;
9449;SDS011;4763;48.370;10.874;2023-07-09T12:55:24;8.70;;;2.60;;
9449;SDS011;4763;48.370;10.874;2023-07-09T12:57:54;6.00;;;2.50;;
9449;SDS011;4763;48.370;10.874;2023-07-09T13:00:22;2.80;;;2.13;;
9449;SDS011;4763;48.370;10.874;2023-07-09T13:02:53;5.22;;;2.63;;
9449;SDS011;4763;48.370;10.874;2023-07-09T13:05:21;3.55;;;2.47;;
9449;SDS011;4763;48.370;10.874;2023-07-09T13:07:51;3.50;;;2.33;;
9449;SDS011;4763;48.370;10.874;2023-07-09T13:10:19;4.78;;;2.72;;
9449;SDS011;4763;48.370;10.874;2023-07-09T13:12:53;3.28;;;2.17;;
9449;SDS011;4763;48.370;10.874;2023-07-09T13:15:31;4.38;;;2.67;;
9449;SDS011;4763;48.370;10.874;2023-07-09T13:18:06;2.63;;;2.00;;
9449;SDS011;4763;48.370;10.874;2023-07-09T13:20:36;4.50;;;2.55;;
9449;SDS011;4763;48.370;10.874;2023-07-09T13:23:08;4.13;;;2.30;;
9449;SDS011;4763;48.370;10.874;2023-07-09T13:25:37;2.92;;;2.08;;
9449;SDS011;4763;48.370;10.874;2023-07-09T13:28:08;5.65;;;2.42;;
9449;SDS011;4763;48.370;10.874;2023-07-09T13:30:40;2.83;;;2.03;;
9449;SDS011;4763;48.370;10.874;2023-07-09T13:33:07;4.53;;;2.63;;
9449;SDS011;4763;48.370;10.874;2023-07-09T13:35:35;4.70;;;2.35;;
9449;SDS011;4763;48.370;10.874;2023-07-09T13:38:02;3.50;;;2.40;;
9449;SDS011;4763;48.370;10.874;2023-07-09T13:40:30;2.28;;;2.08;;
9449;SDS011;4763;48.370;10.874;2023-07-09T13:42:57;3.33;;;2.38;;
9449;SDS011;4763;48.370;10.874;2023-07-09T13:45:25;5.32;;;2.30;;
9449;SDS011;4763;48.370;10.874;2023-07-09T13:47:52;4.30;;;2.65;;
9449;SDS011;4763;48.370;10.874;2023-07-09T13:50:19;4.25;;;2.30;;
9449;SDS011;4763;48.370;10.874;2023-07-09T13:52:48;9.02;;;2.60;;
9449;SDS011;4763;48.370;10.874;2023-07-09T13:55:16;6.63;;;2.70;;
9449;SDS011;4763;48.370;10.874;2023-07-09T13:57:44;4.28;;;2.70;;
9449;SDS011;4763;48.370;10.874;2023-07-09T14:00:12;5.38;;;2.38;;
9449;SDS011;4763;48.370;10.874;2023-07-09T14:02:40;3.75;;;2.38;;
9449;SDS011;4763;48.370;10.874;2023-07-09T14:05:08;4.03;;;2.75;;
9449;SDS011;4763;48.370;10.874;2023-07-09T14:07:39;6.13;;;2.58;;
9449;SDS011;4763;48.370;10.874;2023-07-09T14:10:10;2.75;;;2.40;;
9449;SDS011;4763;48.370;10.874;2023-07-09T14:12:43;5.60;;;2.50;;
9449;SDS011;4763;48.370;10.874;2023-07-09T14:15:12;3.55;;;2.30;;
9449;SDS011;4763;48.370;10.874;2023-07-09T14:17:44;5.50;;;2.50;;
9449;SDS011;4763;48.370;10.874;2023-07-09T14:20:12;4.30;;;2.42;;
9449;SDS011;4763;48.370;10.874;2023-07-09T14:22:40;6.30;;;2.83;;
9449;SDS011;4763;48.370;10.874;2023-07-09T14:25:09;4.15;;;2.80;;
9449;SDS011;4763;48.370;10.874;2023-07-09T14:27:41;6.47;;;2.75;;
9449;SDS011;4763;48.370;10.874;2023-07-09T14:30:09;5.00;;;2.55;;
9449;SDS011;4763;48.370;10.874;2023-07-09T14:32:41;6.15;;;2.85;;
9449;SDS011;4763;48.370;10.874;2023-07-09T14:35:12;5.32;;;2.20;;
9449;SDS011;4763;48.370;10.874;2023-07-09T14:37:40;6.63;;;2.88;;
9449;SDS011;4763;48.370;10.874;2023-07-09T14:40:08;6.13;;;2.47;;
9449;SDS011;4763;48.370;10.874;2023-07-09T14:42:35;3.75;;;2.60;;
9449;SDS011;4763;48.370;10.874;2023-07-09T14:45:03;3.53;;;2.47;;
9449;SDS011;4763;48.370;10.874;2023-07-09T14:47:30;4.55;;;2.70;;
9449;SDS011;4763;48.370;10.874;2023-07-09T14:49:57;6.18;;;3.40;;
9449;SDS011;4763;48.370;10.874;2023-07-09T14:52:25;3.25;;;2.63;;
9449;SDS011;4763;48.370;10.874;2023-07-09T14:54:52;4.20;;;2.55;;
9449;SDS011;4763;48.370;10.874;2023-07-09T14:57:21;4.43;;;2.78;;
9449;SDS011;4763;48.370;10.874;2023-07-09T14:59:49;4.97;;;2.47;;
9449;SDS011;4763;48.370;10.874;2023-07-09T15:02:20;4.13;;;2.53;;
9449;SDS011;4763;48.370;10.874;2023-07-09T15:04:59;6.82;;;3.22;;
9449;SDS011;4763;48.370;10.874;2023-07-09T15:07:28;4.63;;;2.78;;
9449;SDS011;4763;48.370;10.874;2023-07-09T15:09:56;4.93;;;3.53;;
9449;SDS011;4763;48.370;10.874;2023-07-09T15:12:24;6.97;;;2.90;;
9449;SDS011;4763;48.370;10.874;2023-07-09T15:14:54;4.28;;;2.60;;
9449;SDS011;4763;48.370;10.874;2023-07-09T15:17:25;4.47;;;2.65;;
9449;SDS011;4763;48.370;10.874;2023-07-09T15:19:52;4.70;;;2.83;;